KPAE/PAE METAR and TAF weather

Enter ICAO airport designator
Station Type Date Time Source
KPAE METAR 2021/05/11 22:53 UTC NOAA

KPAE 112253Z 36007KT 10SM CLR 18/06 A3018 RMK AO2 SLP219 T01780061


Station Type Date Time Source
KPAE Decoded METAR 2021/05/11 22:53 UTC NOAA

EVERETT SNOHOMISH COUNTY, WA, United States (KPAE) 47-55N 122-17W 180M
May 11, 2021 - 06:53 PM EDT / 2021.05.11 2253 UTC
Wind: from the N (360 degrees) at 8 MPH (7 KT):0
Visibility: 10 mile(s):0
Sky conditions: clear
Temperature: 64.0 F (17.8 C)
Dew Point: 43.0 F (6.1 C)
Relative Humidity: 46%
Pressure (altimeter): 30.18 in. Hg (1022 hPa)
ob: KPAE 112253Z 36007KT 10SM CLR 18/06 A3018 RMK AO2 SLP219 T01780061
cycle: 23

Station Type Date Time Source
KPAE TAF 2021/05/11 18:24 UTC NOAA

TAF KPAE 111722Z 1118/1218 35006KT P6SM BKN250
FM120500 01004KT P6SM SCT120 OVC200
FM121100 VRB03KT P6SM BKN090 OVC120
FM121400 VRB03KT P6SM OVC070

Example: see airport list